Time;durP1;ratioP1;P1;durP2;ratioP2;P2;SDS_P1;SDS_P2;PMS_P1;PMS_P2;Temp;Humidity;BMP_temperature;BMP_pressure;BME280_temperature;BME280_humidity;BME280_pressure;Samples;Min_cycle;Max_cycle;Signal;HPM_P1;HPM_P2
2022/07/17 00:00:28;;;;;;;9.07;8.23;;;;;;;27.44;45.52;99557.03;5091321;28;20187;-58
2022/07/17 00:02:55;;;;;;;8.60;8.00;;;;;;;27.37;45.74;99560.03;5091271;28;20269;-57
2022/07/17 00:05:22;;;;;;;8.43;7.72;;;;;;;27.41;45.91;99561.66;5091128;28;20199;-57
2022/07/17 00:07:49;;;;;;;8.18;7.57;;;;;;;27.40;46.07;99554.63;5090062;28;20439;-57
2022/07/17 00:10:16;;;;;;;8.05;7.25;;;;;;;27.47;45.89;99572.72;5091409;28;20190;-57
2022/07/17 00:12:43;;;;;;;8.35;7.72;;;;;;;27.46;45.82;99560.47;5091223;28;20187;-57
2022/07/17 00:15:11;;;;;;;8.30;7.50;;;;;;;27.42;46.18;99572.09;5091163;28;20198;-57
2022/07/17 00:17:39;;;;;;;8.07;7.38;;;;;;;27.42;46.27;99571.25;5091007;28;20187;-57
2022/07/17 00:20:07;;;;;;;8.20;7.50;;;;;;;27.35;46.16;99568.06;5091072;28;20187;-57
2022/07/17 00:22:34;;;;;;;8.63;7.93;;;;;;;27.29;46.46;99568.34;5091184;28;20241;-57
2022/07/17 00:25:01;;;;;;;8.45;7.65;;;;;;;27.25;46.71;99563.31;5091152;28;20194;-58
2022/07/17 00:27:28;;;;;;;8.48;7.60;;;;;;;27.20;46.56;99566.19;5090652;28;20203;-58
2022/07/17 00:29:55;;;;;;;8.98;7.38;;;;;;;27.18;46.46;99572.47;5091113;28;20191;-58
2022/07/17 00:32:23;;;;;;;7.67;7.07;;;;;;;27.13;45.26;99569.22;5090725;28;20255;-58
2022/07/17 00:34:51;;;;;;;14.57;7.03;;;;;;;27.07;44.99;99572.16;5090765;28;20230;-57
2022/07/17 00:37:18;;;;;;;7.88;6.63;;;;;;;26.99;45.35;99563.75;5090962;28;20198;-57
2022/07/17 00:39:45;;;;;;;7.20;6.50;;;;;;;26.98;45.29;99580.50;5090712;28;20195;-57
2022/07/17 00:42:13;;;;;;;7.28;6.68;;;;;;;26.85;45.21;99575.84;5090698;28;20214;-57
2022/07/17 00:44:41;;;;;;;7.05;6.32;;;;;;;26.89;44.87;99572.13;5090652;28;20190;-57
2022/07/17 00:47:13;;;;;;;8.95;6.90;;;;;;;26.90;44.93;99576.47;5090538;28;20191;-57
2022/07/17 00:49:41;;;;;;;6.85;6.25;;;;;;;26.94;44.88;99582.47;5090735;28;20259;-57
2022/07/17 00:52:12;;;;;;;6.83;6.37;;;;;;;26.90;45.11;99575.59;5090359;28;20198;-57
2022/07/17 00:54:40;;;;;;;7.05;6.45;;;;;;;26.91;45.60;99583.47;5090444;28;20199;-57
2022/07/17 00:57:09;;;;;;;7.72;6.93;;;;;;;26.93;45.13;99580.75;5090059;28;20230;-57
2022/07/17 00:59:37;;;;;;;6.70;6.05;;;;;;;26.94;45.33;99579.81;5090170;28;20186;-57
2022/07/17 01:02:05;;;;;;;7.60;7.05;;;;;;;26.88;45.67;99578.34;5090416;28;20195;-58
2022/07/17 01:04:32;;;;;;;7.35;6.85;;;;;;;26.85;45.83;99586.41;5090314;28;20762;-57
2022/07/17 01:07:00;;;;;;;8.85;7.70;;;;;;;26.81;46.07;99576.91;5090394;28;20210;-57
2022/07/17 01:09:29;;;;;;;7.88;7.10;;;;;;;26.74;46.42;99577.25;5090488;28;20209;-57
2022/07/17 01:11:56;;;;;;;7.70;7.20;;;;;;;26.72;46.79;99576.47;5090047;28;20681;-57
2022/07/17 01:14:24;;;;;;;7.72;7.13;;;;;;;26.71;46.95;99580.03;5089701;28;20424;-57
2022/07/17 01:16:51;;;;;;;7.73;7.03;;;;;;;26.72;46.85;99582.63;5090281;28;20194;-58
2022/07/17 01:19:19;;;;;;;7.68;7.15;;;;;;;26.73;46.88;99580.81;5090274;28;20582;-58
2022/07/17 01:21:49;;;;;;;8.53;7.73;;;;;;;26.72;47.13;99589.66;5089999;28;20206;-57
2022/07/17 01:24:17;;;;;;;8.88;8.23;;;;;;;26.66;47.51;99590.81;5090465;28;20638;-57
2022/07/17 01:26:45;;;;;;;8.90;8.20;;;;;;;26.60;47.85;99603.41;5090201;28;20191;-57
2022/07/17 01:29:13;;;;;;;10.17;9.17;;;;;;;26.59;48.01;99601.72;5090366;28;20195;-58
2022/07/17 01:31:42;;;;;;;9.30;8.37;;;;;;;26.58;48.27;99592.97;5089960;28;20191;-57
2022/07/17 01:34:12;;;;;;;9.43;8.53;;;;;;;26.49;48.99;99597.78;5089817;28;20195;-58
2022/07/17 01:36:39;;;;;;;10.47;9.70;;;;;;;26.37;49.20;99599.22;5089931;28;20608;-58
2022/07/17 01:39:08;;;;;;;10.10;9.30;;;;;;;26.32;49.50;99601.22;5090097;28;20187;-58
2022/07/17 01:41:35;;;;;;;10.50;9.50;;;;;;;26.17;50.05;99605.44;5094251;28;20194;-58
2022/07/17 01:44:03;;;;;;;10.03;9.23;;;;;;;26.10;50.61;99613.63;5094240;28;20214;-58
2022/07/17 01:46:30;;;;;;;10.20;9.30;;;;;;;26.00;51.09;99609.69;5094056;28;20732;-58
2022/07/17 01:48:56;;;;;;;10.90;9.80;;;;;;;25.79;51.41;99599.19;5094090;28;20191;-57
2022/07/17 01:51:23;;;;;;;10.80;9.90;;;;;;;25.86;51.77;99612.94;5094007;28;20187;-57
2022/07/17 01:53:50;;;;;;;11.23;10.07;;;;;;;25.80;52.29;99615.84;5093802;28;20187;-58
2022/07/17 01:56:18;;;;;;;10.97;10.07;;;;;;;25.72;52.55;99610.06;5093935;28;20213;-58
2022/07/17 01:58:45;;;;;;;10.97;9.97;;;;;;;25.71;52.77;99617.09;5093977;28;20191;-58
2022/07/17 02:01:12;;;;;;;10.67;9.77;;;;;;;25.70;53.14;99623.28;5093865;28;20213;-57
2022/07/17 02:03:39;;;;;;;11.40;10.20;;;;;;;25.68;53.16;99619.84;5093651;28;20215;-57
2022/07/17 02:06:05;;;;;;;10.30;9.43;;;;;;;25.68;53.30;99611.13;5092710;28;20436;-58
2022/07/17 02:08:32;;;;;;;10.93;9.83;;;;;;;25.72;53.05;99613.53;5093594;28;20566;-57
2022/07/17 02:10:59;;;;;;;12.20;9.23;;;;;;;25.73;52.57;99617.03;5093583;28;20603;-58
2022/07/17 02:13:27;;;;;;;10.53;9.60;;;;;;;25.72;52.89;99617.94;5093624;28;20183;-57
2022/07/17 02:15:54;;;;;;;9.50;8.60;;;;;;;25.70;53.22;99620.66;5093328;28;20202;-57
2022/07/17 02:18:21;;;;;;;9.37;8.50;;;;;;;25.70;53.01;99615.41;5093408;28;20183;-58
2022/07/17 02:20:49;;;;;;;10.63;8.20;;;;;;;25.69;53.20;99615.44;5093140;28;20704;-57
2022/07/17 02:23:16;;;;;;;9.47;8.70;;;;;;;25.61;53.07;99621.03;5093456;28;20225;-58
2022/07/17 02:25:43;;;;;;;10.07;9.20;;;;;;;25.53;53.83;99619.66;5093170;28;20190;-58
2022/07/17 02:28:10;;;;;;;10.20;9.40;;;;;;;25.49;53.96;99610.19;5093376;28;20278;-58
2022/07/17 02:30:38;;;;;;;10.07;9.20;;;;;;;25.48;53.88;99613.75;5093039;28;20187;-58
2022/07/17 02:33:06;;;;;;;9.60;8.80;;;;;;;25.51;53.73;99613.63;5093045;28;20670;-58
2022/07/17 02:35:34;;;;;;;8.97;8.27;;;;;;;25.51;53.76;99609.22;5092921;28;20199;-57
2022/07/17 02:38:01;;;;;;;9.10;8.20;;;;;;;25.60;53.25;99615.88;5092341;28;20442;-58
2022/07/17 02:40:28;;;;;;;10.23;8.83;;;;;;;25.64;52.99;99620.91;5093004;28;20205;-58
2022/07/17 02:42:55;;;;;;;9.37;8.47;;;;;;;25.62;53.50;99624.53;5092644;28;20202;-58
2022/07/17 02:45:24;;;;;;;8.90;8.20;;;;;;;25.64;53.10;99625.31;5093084;28;20201;-57
2022/07/17 02:47:53;;;;;;;9.73;8.80;;;;;;;25.61;53.45;99625.44;5092845;28;20240;-58
2022/07/17 02:50:20;;;;;;;10.00;9.10;;;;;;;25.50;53.77;99611.91;5092748;28;20278;-58
2022/07/17 02:52:48;;;;;;;10.10;9.03;;;;;;;25.27;53.96;99594.44;5092857;28;20270;-58
2022/07/17 02:55:17;;;;;;;10.43;9.43;;;;;;;25.33;54.37;99622.22;5093139;28;21009;-58
2022/07/17 02:57:46;;;;;;;10.43;8.47;;;;;;;25.30;54.56;99625.84;5092620;28;20222;-58
2022/07/17 03:00:16;;;;;;;12.37;9.93;;;;;;;25.24;54.54;99623.50;5092683;28;20286;-58
2022/07/17 03:02:43;;;;;;;10.43;9.47;;;;;;;25.19;54.81;99623.66;5092583;28;20191;-58
2022/07/17 03:05:13;;;;;;;10.07;9.27;;;;;;;25.11;55.25;99623.13;5092527;28;20226;-57
2022/07/17 03:07:39;;;;;;;10.13;9.33;;;;;;;25.11;55.04;99633.66;5092420;28;20198;-58
2022/07/17 03:10:08;;;;;;;10.23;9.33;;;;;;;25.08;54.76;99636.41;5092471;28;20198;-57
2022/07/17 03:12:35;;;;;;;9.60;8.70;;;;;;;25.11;55.02;99633.66;5092502;28;20191;-57
2022/07/17 03:15:02;;;;;;;9.60;8.67;;;;;;;25.17;54.32;99641.28;5092375;28;20244;-57
2022/07/17 03:17:29;;;;;;;10.03;9.23;;;;;;;25.18;54.63;99637.75;5092395;28;20202;-57
2022/07/17 03:19:55;;;;;;;9.87;8.80;;;;;;;25.21;54.68;99629.75;5092391;28;20195;-56
2022/07/17 03:22:23;;;;;;;10.10;9.30;;;;;;;25.17;54.78;99643.06;5092183;28;20665;-57
2022/07/17 03:24:50;;;;;;;10.17;9.37;;;;;;;25.29;54.65;99649.59;5092564;28;20582;-57
2022/07/17 03:27:18;;;;;;;9.43;8.73;;;;;;;25.26;54.83;99647.09;5092194;28;20218;-58
2022/07/17 03:29:45;;;;;;;9.63;8.93;;;;;;;25.30;55.18;99646.91;5091985;28;20187;-58
2022/07/17 03:32:12;;;;;;;11.33;10.20;;;;;;;25.36;54.89;99651.03;5091934;28;20286;-57
2022/07/17 03:34:40;;;;;;;9.60;8.80;;;;;;;25.24;54.63;99649.81;5092209;28;20187;-58
2022/07/17 03:37:07;;;;;;;8.53;7.73;;;;;;;25.36;53.94;99659.81;5092091;28;20620;-58
2022/07/17 03:39:35;;;;;;;8.20;7.60;;;;;;;25.34;54.31;99659.00;5091930;28;20195;-57
2022/07/17 03:42:02;;;;;;;8.30;7.70;;;;;;;25.40;53.30;99657.91;5091850;28;20260;-57
2022/07/17 03:44:29;;;;;;;8.03;7.27;;;;;;;25.46;52.82;99653.25;5091777;28;20218;-57
2022/07/17 03:46:56;;;;;;;8.93;6.93;;;;;;;25.50;52.37;99652.22;5091921;28;20191;-57
2022/07/17 03:49:23;;;;;;;8.90;7.83;;;;;;;25.61;51.83;99662.28;5091713;28;20191;-57
2022/07/17 03:51:50;;;;;;;8.53;7.53;;;;;;;25.60;52.43;99666.69;5091853;28;20191;-57
2022/07/17 03:54:16;;;;;;;8.50;7.80;;;;;;;25.60;52.30;99665.88;5091587;28;20194;-57
2022/07/17 03:56:45;;;;;;;8.33;7.63;;;;;;;25.62;52.44;99667.50;5091267;28;20227;-57
2022/07/17 03:59:12;;;;;;;7.43;6.87;;;;;;;25.67;51.75;99673.44;5091741;28;20199;-58
2022/07/17 04:01:38;;;;;;;7.90;7.13;;;;;;;25.72;51.39;99670.59;5091598;28;20217;-58
2022/07/17 04:04:05;;;;;;;7.73;6.63;;;;;;;25.72;51.26;99678.50;5090764;28;20735;-58
2022/07/17 04:06:32;;;;;;;7.37;6.77;;;;;;;25.73;51.33;99683.72;5091331;28;20207;-58
2022/07/17 04:08:59;;;;;;;7.00;6.40;;;;;;;25.77;50.65;99684.41;5091253;28;20198;-56
2022/07/17 04:11:26;;;;;;;8.07;6.20;;;;;;;25.85;50.27;99682.31;5091069;28;20202;-57
2022/07/17 04:13:54;;;;;;;6.30;5.80;;;;;;;25.87;49.95;99685.75;5091471;28;20191;-57
2022/07/17 04:16:20;;;;;;;7.40;6.70;;;;;;;25.92;49.73;99688.19;5091197;28;20626;-57
2022/07/17 04:18:47;;;;;;;6.97;6.27;;;;;;;25.96;49.77;99703.78;5091187;28;20187;-57
2022/07/17 04:21:14;;;;;;;6.33;5.83;;;;;;;26.00;49.87;99701.88;5091007;28;20190;-57
2022/07/17 04:23:41;;;;;;;7.73;5.80;;;;;;;26.10;48.84;99708.44;5090870;28;20226;-57
2022/07/17 04:26:08;;;;;;;6.97;6.37;;;;;;;26.10;48.39;99706.66;5091218;28;20201;-57
2022/07/17 04:28:35;;;;;;;7.20;6.20;;;;;;;26.14;48.24;99707.44;5090964;28;20191;-58
2022/07/17 04:31:03;;;;;;;6.37;5.77;;;;;;;26.14;48.02;99710.94;5091000;28;20199;-58
2022/07/17 04:33:30;;;;;;;5.93;5.53;;;;;;;26.17;48.17;99708.16;5090926;28;20191;-58
2022/07/17 04:35:57;;;;;;;6.60;5.90;;;;;;;26.23;47.51;99710.50;5090332;28;20432;-58
2022/07/17 04:38:24;;;;;;;7.33;5.50;;;;;;;26.32;46.75;99719.78;5090669;28;20198;-58
2022/07/17 04:40:51;;;;;;;6.00;5.50;;;;;;;26.34;46.83;99724.06;5090883;28;20191;-58
2022/07/17 04:43:17;;;;;;;5.83;5.20;;;;;;;26.47;46.66;99715.63;5090841;28;20191;-57
2022/07/17 04:45:44;;;;;;;5.87;5.47;;;;;;;26.48;46.51;99717.34;5090728;28;20223;-58
2022/07/17 04:48:12;;;;;;;6.00;5.60;;;;;;;26.47;46.15;99727.03;5090336;28;20202;-58
2022/07/17 04:50:39;;;;;;;6.23;5.73;;;;;;;26.54;46.11;99719.69;5090567;28;20191;-57
2022/07/17 04:53:07;;;;;;;6.17;5.20;;;;;;;26.65;45.89;99720.03;5090258;28;20271;-58
2022/07/17 04:55:33;;;;;;;7.67;5.47;;;;;;;26.64;46.16;99726.25;5090274;28;20220;-57
2022/07/17 04:58:00;;;;;;;5.43;4.97;;;;;;;26.71;44.90;99733.81;5090298;28;20352;-58
2022/07/17 05:00:27;;;;;;;5.50;5.10;;;;;;;26.80;45.25;99732.56;5090329;28;20187;-58
2022/07/17 05:02:54;;;;;;;5.70;5.30;;;;;;;26.85;45.50;99725.28;5090359;28;20251;-58
2022/07/17 05:05:23;;;;;;;5.88;5.25;;;;;;;26.91;45.26;99720.59;5090364;28;20272;-58
2022/07/17 05:07:49;;;;;;;6.07;5.20;;;;;;;26.95;44.65;99722.16;5089901;28;20458;-57
2022/07/17 05:10:16;;;;;;;6.00;5.00;;;;;;;27.05;44.07;99729.66;5090216;28;20199;-57
2022/07/17 05:12:43;;;;;;;6.53;5.33;;;;;;;27.10;44.43;99725.00;5090382;28;20248;-57
2022/07/17 05:15:10;;;;;;;6.80;5.10;;;;;;;27.10;43.94;99733.78;5089224;28;20542;-57
2022/07/17 05:17:37;;;;;;;5.78;5.28;;;;;;;27.20;43.51;99731.53;5090146;28;20191;-57
2022/07/17 05:20:05;;;;;;;7.05;4.75;;;;;;;27.25;43.17;99738.31;5089913;28;20193;-57
2022/07/17 05:22:34;;;;;;;5.50;4.90;;;;;;;27.26;42.68;99742.66;5089863;28;20562;-57
2022/07/17 05:25:00;;;;;;;5.30;4.82;;;;;;;27.21;42.94;99741.19;5089648;28;20440;-57
2022/07/17 05:27:28;;;;;;;5.85;4.75;;;;;;;27.23;43.08;99734.91;5090050;28;20604;-57
2022/07/17 05:29:55;;;;;;;5.00;4.60;;;;;;;27.31;42.56;99738.03;5089931;28;20248;-57
2022/07/17 05:32:22;;;;;;;5.35;4.95;;;;;;;27.45;42.93;99745.31;5090299;28;20742;-57
2022/07/17 05:34:49;;;;;;;8.52;4.25;;;;;;;27.58;42.29;99745.59;5089713;28;20679;-58
2022/07/17 05:37:16;;;;;;;4.72;4.43;;;;;;;27.52;42.00;99757.28;5089801;28;20218;-57
2022/07/17 05:39:44;;;;;;;4.93;4.55;;;;;;;27.60;41.92;99760.41;5089982;28;20190;-58
2022/07/17 05:42:11;;;;;;;6.82;4.70;;;;;;;27.66;41.94;99759.25;5089879;28;20195;-56
2022/07/17 05:44:37;;;;;;;4.75;4.38;;;;;;;27.70;41.93;99766.09;5089578;28;20218;-57
2022/07/17 05:47:04;;;;;;;5.80;5.28;;;;;;;27.81;41.33;99761.97;5089739;28;20213;-57
2022/07/17 05:49:31;;;;;;;11.18;5.20;;;;;;;27.89;41.21;99764.25;5089761;28;20194;-57
2022/07/17 05:51:58;;;;;;;5.20;4.32;;;;;;;28.01;41.03;99774.19;5089486;28;20205;-57
2022/07/17 05:54:25;;;;;;;7.20;4.63;;;;;;;28.00;41.01;99777.75;5089609;28;20187;-57
2022/07/17 05:56:53;;;;;;;5.95;4.60;;;;;;;28.11;41.12;99775.47;5089189;28;20745;-58
2022/07/17 05:59:20;;;;;;;6.47;4.93;;;;;;;28.18;41.10;99774.25;5089236;28;20607;-58
2022/07/17 06:01:47;;;;;;;5.00;4.55;;;;;;;28.25;40.88;99780.03;5089207;28;20203;-66
2022/07/17 06:04:13;;;;;;;4.53;3.90;;;;;;;28.12;39.63;99782.47;5089609;28;20222;-67
2022/07/17 06:06:40;;;;;;;4.65;4.25;;;;;;;28.18;40.24;99786.59;5089233;28;20191;-67
2022/07/17 06:09:07;;;;;;;5.13;4.30;;;;;;;27.97;39.77;99756.78;5089004;28;20293;-67
2022/07/17 06:11:34;;;;;;;5.13;4.13;;;;;;;28.22;40.57;99783.69;5089372;28;20616;-67
2022/07/17 06:14:02;;;;;;;4.72;4.22;;;;;;;28.32;39.13;99777.00;5089289;28;20195;-67
2022/07/17 06:16:29;;;;;;;5.93;3.70;;;;;;;28.31;37.84;99775.31;5088509;28;20447;-66
2022/07/17 06:18:56;;;;;;;4.05;3.65;;;;;;;28.34;38.02;99769.88;5089429;28;20195;-66
2022/07/17 06:21:23;;;;;;;4.88;3.55;;;;;;;28.51;38.69;99769.00;5089438;28;20204;-67
2022/07/17 06:23:50;;;;;;;3.70;3.47;;;;;;;28.55;36.07;99775.81;5089486;28;20548;-67
2022/07/17 06:26:17;;;;;;;5.20;3.45;;;;;;;28.58;36.16;99775.66;5091211;28;20234;-66
2022/07/17 06:28:43;;;;;;;4.60;3.67;;;;;;;28.52;36.23;99771.53;5092879;28;20195;-66
2022/07/17 06:31:12;;;;;;;3.97;3.58;;;;;;;28.50;36.02;99768.13;5093149;28;20205;-66
2022/07/17 06:33:39;;;;;;;5.15;3.92;;;;;;;28.48;34.71;99769.16;5092964;28;20195;-67
2022/07/17 06:36:06;;;;;;;3.60;3.30;;;;;;;28.46;34.70;99760.41;5092800;28;20187;-67
2022/07/17 06:38:34;;;;;;;3.50;3.22;;;;;;;28.52;34.38;99770.69;5092613;28;20716;-67
2022/07/17 06:41:01;;;;;;;5.13;3.72;;;;;;;28.52;34.06;99773.31;5092867;28;20315;-67
2022/07/17 06:43:27;;;;;;;3.60;3.30;;;;;;;28.55;34.22;99774.03;5092818;28;20628;-66
2022/07/17 06:45:55;;;;;;;3.78;3.47;;;;;;;28.57;34.59;99769.50;5092901;28;20721;-67
2022/07/17 06:48:24;;;;;;;4.63;3.97;;;;;;;28.51;34.23;99747.84;5092649;28;21260;-67
2022/07/17 06:50:50;;;;;;;3.67;3.38;;;;;;;28.73;34.38;99769.59;5092625;28;20289;-66
2022/07/17 06:53:17;;;;;;;5.20;3.60;;;;;;;28.81;34.21;99767.38;5092652;28;20207;-67
2022/07/17 06:55:44;;;;;;;4.95;3.60;;;;;;;28.89;34.17;99769.63;5092437;28;20198;-67
2022/07/17 06:58:11;;;;;;;5.15;3.28;;;;;;;28.95;33.91;99774.56;5092437;28;20234;-66
2022/07/17 07:00:39;;;;;;;4.80;3.08;;;;;;;28.94;33.96;99767.56;5092628;28;20207;-67
2022/07/17 07:03:05;;;;;;;8.63;3.70;;;;;;;28.94;34.07;99767.56;5092296;28;20558;-66
2022/07/17 07:05:34;;;;;;;3.95;3.55;;;;;;;28.94;34.03;99765.78;5092349;28;20219;-67
2022/07/17 07:08:00;;;;;;;4.68;3.80;;;;;;;29.01;34.43;99775.06;5092211;28;20573;-67
2022/07/17 07:10:27;;;;;;;3.90;3.40;;;;;;;29.08;33.63;99776.47;5092171;28;20194;-67
2022/07/17 07:12:54;;;;;;;3.75;3.47;;;;;;;29.16;33.17;99771.59;5092338;28;20190;-67
2022/07/17 07:15:21;;;;;;;6.55;3.78;;;;;;;29.18;33.57;99768.84;5091795;28;20195;-67
2022/07/17 07:17:48;;;;;;;3.28;3.05;;;;;;;29.18;32.56;99774.16;5091950;28;20195;-67
2022/07/17 07:20:15;;;;;;;3.22;2.92;;;;;;;29.20;32.94;99769.63;5091531;28;20186;-67
2022/07/17 07:22:43;;;;;;;4.20;3.53;;;;;;;29.22;33.52;99767.78;5091300;28;20201;-67
2022/07/17 07:25:10;;;;;;;3.85;3.25;;;;;;;29.31;33.67;99769.91;5091534;28;20696;-67
2022/07/17 07:27:37;;;;;;;6.03;3.20;;;;;;;29.50;32.88;99775.88;5091594;28;20565;-66
2022/07/17 07:30:05;;;;;;;4.00;3.58;;;;;;;29.52;32.64;99776.66;5091288;28;20194;-66
2022/07/17 07:32:32;;;;;;;5.57;4.43;;;;;;;29.44;32.65;99770.94;5091337;28;20723;-66
2022/07/17 07:34:58;;;;;;;7.25;3.47;;;;;;;29.43;31.76;99776.31;5091354;28;20190;-66
2022/07/17 07:37:25;;;;;;;5.25;3.53;;;;;;;29.46;32.43;99774.34;5090464;28;20198;-66
2022/07/17 07:39:53;;;;;;;4.13;3.80;;;;;;;29.48;32.65;99775.13;5090176;28;20889;-66
2022/07/17 07:42:20;;;;;;;4.20;3.85;;;;;;;29.62;32.58;99775.19;5091267;28;20217;-66
2022/07/17 07:44:47;;;;;;;3.70;3.40;;;;;;;29.74;32.34;99779.78;5091494;28;20225;-66
2022/07/17 07:47:14;;;;;;;4.07;3.35;;;;;;;29.58;32.04;99786.91;5091243;28;20195;-66
2022/07/17 07:49:41;;;;;;;3.97;3.25;;;;;;;29.65;31.09;99772.38;5090974;28;20256;-66
2022/07/17 07:52:07;;;;;;;3.50;3.20;;;;;;;29.70;31.29;99775.59;5090911;28;20202;-66
2022/07/17 07:54:34;;;;;;;4.13;3.25;;;;;;;29.86;31.46;99785.38;5091296;28;20187;-66
2022/07/17 07:57:03;;;;;;;3.25;3.00;;;;;;;29.87;30.83;99790.56;5090746;28;20206;-66
2022/07/17 07:59:32;;;;;;;3.38;3.10;;;;;;;29.86;32.07;99788.00;5090420;28;20198;-67
2022/07/17 08:01:59;;;;;;;4.07;3.35;;;;;;;29.78;31.18;99783.09;5090738;28;20220;-66
2022/07/17 08:04:26;;;;;;;3.65;3.35;;;;;;;29.94;31.69;99793.72;5090361;28;20195;-66
2022/07/17 08:06:53;;;;;;;4.30;3.42;;;;;;;29.98;30.65;99801.38;5090370;28;20230;-66
2022/07/17 08:09:20;;;;;;;6.20;3.45;;;;;;;30.07;30.69;99800.00;5090531;28;20318;-66
2022/07/17 08:11:46;;;;;;;3.97;3.58;;;;;;;30.18;30.85;99797.56;5090389;28;20206;-66
2022/07/17 08:14:15;;;;;;;4.05;3.58;;;;;;;30.22;30.92;99799.06;5090407;28;20673;-67
2022/07/17 08:16:42;;;;;;;4.03;3.38;;;;;;;30.30;30.33;99804.78;5090060;28;20684;-66
2022/07/17 08:19:08;;;;;;;4.90;3.80;;;;;;;30.27;30.51;99794.38;5089949;28;20202;-67
2022/07/17 08:21:35;;;;;;;7.57;2.97;;;;;;;30.34;29.67;99801.00;5090010;28;20187;-66
2022/07/17 08:24:02;;;;;;;6.00;3.53;;;;;;;30.39;29.78;99785.72;5090445;28;20187;-66
2022/07/17 08:26:29;;;;;;;3.47;3.17;;;;;;;30.47;29.88;99798.50;5089934;28;20222;-66
2022/07/17 08:28:56;;;;;;;5.82;3.85;;;;;;;30.52;29.39;99799.09;5089796;28;20187;-66
2022/07/17 08:31:25;;;;;;;4.05;3.30;;;;;;;30.61;28.59;99788.75;5088786;28;20451;-67
2022/07/17 08:33:51;;;;;;;5.50;3.22;;;;;;;30.66;28.12;99794.63;5090026;28;20187;-66
2022/07/17 08:36:18;;;;;;;3.40;3.10;;;;;;;30.72;28.12;99794.28;5090214;28;20187;-67
2022/07/17 08:38:45;;;;;;;4.13;3.50;;;;;;;30.76;28.82;99785.19;5090083;28;20694;-66
2022/07/17 08:41:16;;;;;;;3.58;3.30;;;;;;;30.78;28.87;99783.28;5089945;28;20194;-66
2022/07/17 08:43:43;;;;;;;5.40;3.33;;;;;;;30.94;27.93;99785.84;5089727;28;20191;-66
2022/07/17 08:46:11;;;;;;;5.35;3.58;;;;;;;30.92;28.10;99788.63;5089704;28;20296;-66
2022/07/17 08:48:41;;;;;;;3.90;2.95;;;;;;;30.63;27.87;99770.94;5088923;28;20598;-66
2022/07/17 08:51:09;;;;;;;4.18;3.50;;;;;;;30.70;27.66;99758.16;5089853;28;20194;-66
2022/07/17 08:53:36;;;;;;;3.70;3.40;;;;;;;30.94;28.02;99784.06;5089876;28;20677;-66
2022/07/17 08:56:03;;;;;;;4.80;3.40;;;;;;;30.93;27.10;99785.00;5089513;28;20183;-65
2022/07/17 08:58:30;;;;;;;4.38;2.90;;;;;;;30.96;27.33;99783.94;5089315;28;20227;-66
2022/07/17 09:00:57;;;;;;;3.75;3.38;;;;;;;31.05;27.83;99790.50;5089611;28;20194;-66
2022/07/17 09:03:24;;;;;;;6.07;2.88;;;;;;;31.12;27.27;99781.19;5089710;28;20195;-65
2022/07/17 09:05:52;;;;;;;4.63;3.10;;;;;;;31.26;27.13;99773.22;5089348;28;20219;-67
2022/07/17 09:08:22;;;;;;;4.63;3.30;;;;;;;31.28;27.21;99781.94;5089551;28;20191;-66
2022/07/17 09:10:51;;;;;;;4.47;3.55;;;;;;;31.29;27.26;99773.84;5089588;28;20242;-67
2022/07/17 09:13:19;;;;;;;5.03;3.42;;;;;;;31.33;26.70;99782.47;5088875;28;20649;-66
2022/07/17 09:15:48;;;;;;;3.75;3.30;;;;;;;31.29;26.71;99778.31;5089166;28;20198;-66
2022/07/17 09:18:17;;;;;;;4.15;3.15;;;;;;;31.35;26.82;99775.25;5088967;28;20186;-66
2022/07/17 09:20:49;;;;;;;3.50;3.20;;;;;;;31.46;26.75;99778.06;5088500;28;20432;-66
2022/07/17 09:23:18;;;;;;;2.85;2.65;;;;;;;31.58;26.71;99773.81;5089428;28;20201;-66
2022/07/17 09:25:46;;;;;;;5.00;3.80;;;;;;;31.69;27.07;99780.13;5089065;28;20255;-66
2022/07/17 09:28:14;;;;;;;5.75;3.03;;;;;;;31.59;26.80;99773.69;5089125;28;20290;-67
2022/07/17 09:30:43;;;;;;;3.45;3.25;;;;;;;31.74;26.67;99783.31;5088744;28;20191;-66
2022/07/17 09:33:15;;;;;;;4.93;2.85;;;;;;;31.82;26.21;99775.69;5088603;28;20187;-66
2022/07/17 09:35:47;;;;;;;3.15;2.85;;;;;;;31.91;24.81;99772.44;5088815;28;20197;-66
2022/07/17 09:38:25;;;;;;;3.40;3.10;;;;;;;31.95;25.06;99779.22;5088654;28;20431;-66
2022/07/17 09:41:15;;;;;;;5.32;3.05;;;;;;;31.96;25.18;99767.66;5088903;28;20205;-66
2022/07/17 09:43:47;;;;;;;3.13;2.90;;;;;;;31.93;25.26;99777.63;5089340;28;20209;-67
2022/07/17 09:46:16;;;;;;;5.32;3.35;;;;;;;31.93;25.79;99786.47;5089295;28;20215;-66
2022/07/17 09:48:47;;;;;;;3.80;3.28;;;;;;;31.83;25.72;99780.06;5088918;28;20270;-67
2022/07/17 09:51:17;;;;;;;3.63;3.28;;;;;;;31.74;25.93;99780.66;5089135;28;20300;-67
2022/07/17 09:53:47;;;;;;;3.70;3.40;;;;;;;31.84;26.17;99780.91;5088926;28;20218;-66
2022/07/17 09:56:17;;;;;;;3.13;2.83;;;;;;;31.92;25.60;99783.91;5088743;28;20277;-66
2022/07/17 09:58:47;;;;;;;3.08;2.83;;;;;;;31.90;24.74;99781.34;5088702;28;20199;-67
2022/07/17 10:01:15;;;;;;;3.80;2.75;;;;;;;31.97;24.48;99779.16;5091098;28;20295;-66
2022/07/17 10:03:42;;;;;;;5.15;3.20;;;;;;;32.06;25.11;99786.50;5092951;28;20201;-67
2022/07/17 10:06:10;;;;;;;3.55;3.25;;;;;;;32.13;24.72;99774.53;5093048;28;20701;-66
2022/07/17 10:08:38;;;;;;;3.30;2.60;;;;;;;32.26;24.13;99767.41;5092983;28;20195;-67
2022/07/17 10:11:05;;;;;;;3.37;2.90;;;;;;;32.36;24.60;99768.47;5091788;28;20431;-67
2022/07/17 10:13:33;;;;;;;3.00;2.75;;;;;;;32.42;24.77;99765.38;5092885;28;20255;-66
2022/07/17 10:16:00;;;;;;;2.97;2.78;;;;;;;32.51;24.87;99769.22;5092617;28;20195;-66
2022/07/17 10:18:36;;;;;;;2.95;2.72;;;;;;;32.51;24.05;99777.22;5092834;28;20198;-66
2022/07/17 10:21:14;;;;;;;3.40;2.50;;;;;;;32.45;23.21;99761.66;5092633;28;20732;-66
2022/07/17 10:23:42;;;;;;;3.08;2.80;;;;;;;32.45;23.28;99767.00;5092710;28;20255;-66
2022/07/17 10:26:10;;;;;;;4.60;2.85;;;;;;;32.55;24.24;99754.81;5092281;28;20704;-66
2022/07/17 10:28:46;;;;;;;4.07;2.75;;;;;;;32.70;24.04;99751.03;5092660;28;20191;-67
2022/07/17 10:31:24;;;;;;;3.10;2.80;;;;;;;32.70;23.85;99745.72;5092378;28;20276;-66
2022/07/17 10:33:59;;;;;;;3.40;3.15;;;;;;;32.61;24.28;99746.38;5092338;28;20191;-66
2022/07/17 10:36:39;;;;;;;3.00;2.80;;;;;;;32.74;24.04;99744.56;5092179;28;20250;-68
2022/07/17 10:39:14;;;;;;;3.42;2.90;;;;;;;32.78;23.65;99739.84;5092186;28;20190;-65
2022/07/17 10:41:41;;;;;;;4.78;3.08;;;;;;;32.50;23.97;99733.78;5092503;28;20248;-67
2022/07/17 10:44:10;;;;;;;4.22;3.20;;;;;;;32.60;24.67;99747.34;5092525;28;20727;-66
2022/07/17 10:46:36;;;;;;;3.33;3.13;;;;;;;32.57;25.02;99734.25;5092393;28;20225;-67
2022/07/17 10:49:04;;;;;;;3.30;2.88;;;;;;;32.68;24.50;99737.84;5092386;28;20633;-66
2022/07/17 10:51:33;;;;;;;4.40;3.08;;;;;;;32.70;23.90;99727.09;5092128;28;20256;-66
2022/07/17 10:54:00;;;;;;;3.53;3.15;;;;;;;32.85;24.32;99734.00;5092138;28;20693;-66
2022/07/17 10:56:27;;;;;;;3.28;2.92;;;;;;;32.89;23.89;99727.47;5091917;28;20187;-66
2022/07/17 10:59:01;;;;;;;3.72;3.10;;;;;;;32.95;24.02;99719.06;5092295;28;20190;-67
2022/07/17 11:01:29;;;;;;;3.47;3.17;;;;;;;33.02;23.71;99724.81;5091990;28;20429;-66
2022/07/17 11:03:58;;;;;;;3.78;2.92;;;;;;;33.09;23.94;99713.63;5091898;28;20619;-67
2022/07/17 11:06:27;;;;;;;5.78;3.17;;;;;;;33.18;23.96;99720.91;5091888;28;20214;-66
2022/07/17 11:08:57;;;;;;;3.38;2.97;;;;;;;33.29;23.67;99716.63;5092337;28;20214;-67
2022/07/17 11:11:35;;;;;;;3.38;3.08;;;;;;;33.37;23.45;99720.44;5091559;28;20194;-66
2022/07/17 11:14:12;;;;;;;3.50;3.20;;;;;;;33.22;23.62;99714.41;5091453;28;20190;-67
2022/07/17 11:16:45;;;;;;;4.45;3.50;;;;;;;33.21;23.50;99710.03;5092114;28;20217;-67
2022/07/17 11:19:13;;;;;;;4.72;3.47;;;;;;;33.36;24.39;99708.06;5091829;28;20345;-67
2022/07/17 11:21:50;;;;;;;3.78;3.13;;;;;;;33.37;23.43;99712.44;5091935;28;20202;-67
2022/07/17 11:24:17;;;;;;;3.38;3.17;;;;;;;33.46;23.43;99710.91;5091430;28;20252;-67
2022/07/17 11:26:45;;;;;;;3.03;2.83;;;;;;;33.25;22.64;99706.19;5091189;28;20239;-66
2022/07/17 11:29:14;;;;;;;3.53;2.80;;;;;;;33.07;22.27;99702.19;5091710;28;20187;-66
2022/07/17 11:31:43;;;;;;;3.50;2.92;;;;;;;33.02;21.89;99711.50;5091705;28;20190;-66
2022/07/17 11:34:12;;;;;;;3.55;2.70;;;;;;;33.25;21.74;99697.34;5091644;28;20212;-66